Terminal Aerodrome Forecast
Issued by NWS

Current Version | Previous Version | Graphics & Text | Print | Product List | Glossary On
Versions: 1 2 3 4 5 6 7 8 9 10 11 12 13 14 15 16 17 18 19
397
FTUS41 KPBZ 241254 AAA
TAFMGW
TAF AMD
KMGW 241254Z 2413/2512 36004KT P6SM BKN004
     FM241400 01004KT P6SM BKN012
     FM241700 35005KT P6SM SCT025
     FM242000 08005KT P6SM SKC=

USA.gov is the U.S. government's official web portal to all federal, state and local government web resources and services.